Time;durP1;ratioP1;P1;durP2;ratioP2;P2;SDS_P1;SDS_P2;PMS_P1;PMS_P2;Temp;Humidity;BMP_temperature;BMP_pressure;BME280_temperature;BME280_humidity;BME280_pressure;Samples;Min_cycle;Max_cycle;Signal;HPM_P1;HPM_P2
2022/11/10 00:01:47;;;;;;;12.67;5.10;;;;;;;13.26;93.24;100814.50;5007526;28;20400;-80
2022/11/10 00:04:12;;;;;;;7.67;4.20;;;;;;;13.26;93.29;100817.22;5017881;28;20447;-81
2022/11/10 00:06:39;;;;;;;8.80;4.30;;;;;;;13.28;93.07;100822.41;5018218;28;20416;-81
2022/11/10 00:09:05;;;;;;;5.75;3.80;;;;;;;13.23;92.89;100825.06;5012832;28;20804;-81
2022/11/10 00:11:30;;;;;;;8.13;3.80;;;;;;;13.23;93.09;100817.75;5032787;28;20454;-81
2022/11/10 00:19:23;;;;;;;7.40;3.40;;;;;;;13.26;92.46;100821.84;4995084;28;20421;-81
2022/11/10 00:21:48;;;;;;;8.30;3.80;;;;;;;13.23;92.40;100830.50;4995781;28;20893;-81
2022/11/10 00:24:14;;;;;;;6.77;3.43;;;;;;;13.18;92.61;100827.72;5010780;28;20417;-81
2022/11/10 00:26:39;;;;;;;7.60;3.60;;;;;;;13.14;92.58;100841.00;5009621;28;20456;-80
2022/11/10 00:29:04;;;;;;;6.80;3.37;;;;;;;13.12;92.64;100843.16;4999058;28;20779;-81
2022/11/10 00:31:29;;;;;;;7.77;3.20;;;;;;;13.13;92.75;100839.38;5005802;28;20412;-81
2022/11/10 00:33:55;;;;;;;7.83;3.33;;;;;;;13.10;92.74;100842.59;4997788;28;20425;-80
2022/11/10 00:36:20;;;;;;;6.97;3.10;;;;;;;13.06;92.53;100838.69;5019311;28;20417;-81
2022/11/10 00:38:49;;;;;;;6.30;3.17;;;;;;;13.07;92.52;100843.06;5003573;28;20406;-81
2022/11/10 00:41:14;;;;;;;14.65;3.88;;;;;;;13.03;92.67;100844.66;5018426;28;20404;-81
2022/11/10 00:43:39;;;;;;;6.90;4.17;;;;;;;12.99;92.25;100847.06;5015211;28;20494;-81
2022/11/10 00:46:05;;;;;;;7.00;3.17;;;;;;;12.97;92.23;100860.06;5000637;28;20413;-80
2022/11/10 00:48:30;;;;;;;6.20;3.97;;;;;;;12.95;92.37;100864.13;5019742;28;20843;-81
2022/11/10 00:50:55;;;;;;;7.07;3.50;;;;;;;12.94;92.48;100871.44;5016453;28;20943;-81
2022/11/10 00:53:21;;;;;;;11.53;4.00;;;;;;;12.93;92.43;100867.09;5012974;28;20885;-81
2022/11/10 00:55:47;;;;;;;6.50;3.80;;;;;;;12.91;92.51;100874.66;4993056;28;20411;-81
2022/11/10 00:58:12;;;;;;;6.45;3.55;;;;;;;12.89;92.33;100884.16;4996947;28;20904;-81
2022/11/10 01:00:38;;;;;;;4.33;3.57;;;;;;;12.88;92.30;100879.78;4995542;28;20426;-81
2022/11/10 01:03:03;;;;;;;8.27;4.27;;;;;;;12.85;92.20;100885.72;4996350;28;20410;-81
2022/11/10 01:05:29;;;;;;;7.50;3.50;;;;;;;12.84;92.21;100882.19;4997056;28;20468;-80
2022/11/10 01:07:57;;;;;;;10.30;3.60;;;;;;;12.81;92.30;100892.75;5021020;28;20423;-81
2022/11/10 01:10:22;;;;;;;4.00;3.58;;;;;;;12.76;92.29;100900.81;4998520;28;20406;-81
2022/11/10 01:12:47;;;;;;;7.00;3.80;;;;;;;12.75;92.29;100899.16;4999109;28;20418;-81
2022/11/10 01:15:13;;;;;;;8.63;3.67;;;;;;;12.72;92.37;100891.50;5011227;28;20427;-81
2022/11/10 01:17:38;;;;;;;6.07;3.50;;;;;;;12.70;92.29;100904.53;5018962;28;20405;-81
2022/11/10 01:20:04;;;;;;;10.70;3.40;;;;;;;12.67;92.27;100903.16;5018057;28;20494;-81
2022/11/10 01:22:29;;;;;;;9.02;3.38;;;;;;;12.58;92.30;100907.31;5015213;28;20408;-81
2022/11/10 01:24:54;;;;;;;7.87;3.47;;;;;;;12.56;92.65;100909.47;5016729;28;20405;-81
2022/11/10 01:27:20;;;;;;;10.03;3.33;;;;;;;12.49;92.84;100904.22;4995418;28;20826;-81
2022/11/10 01:29:45;;;;;;;5.40;3.00;;;;;;;12.49;92.69;100914.25;4996881;28;20497;-81
2022/11/10 01:32:10;;;;;;;6.90;2.88;;;;;;;12.48;92.75;100920.75;4993468;28;20402;-81
2022/11/10 01:34:38;;;;;;;6.70;3.20;;;;;;;12.46;92.83;100929.16;4994102;28;20409;-80
2022/11/10 01:37:04;;;;;;;7.15;3.08;;;;;;;12.43;92.90;100923.41;4997853;28;20425;-80
2022/11/10 01:39:29;;;;;;;7.60;3.13;;;;;;;12.42;92.90;100925.28;5000268;28;21172;-80
2022/11/10 01:41:54;;;;;;;6.87;3.13;;;;;;;12.41;92.83;100936.41;4997102;28;20901;-80
2022/11/10 01:44:22;;;;;;;5.82;3.10;;;;;;;12.34;92.87;100936.56;4998111;28;20943;-80
2022/11/10 01:46:48;;;;;;;4.75;2.90;;;;;;;12.34;92.95;100941.19;5001785;28;20807;-80
2022/11/10 01:49:17;;;;;;;3.83;2.35;;;;;;;12.34;92.80;100943.91;5003857;28;20395;-80
2022/11/10 01:52:11;;;;;;;4.43;2.40;;;;;;;12.34;92.28;100944.72;5016723;28;20392;-81
2022/11/10 01:54:41;;;;;;;8.88;2.97;;;;;;;12.34;92.15;100947.44;5016129;28;20788;-80
2022/11/10 01:57:10;;;;;;;11.27;3.07;;;;;;;12.32;92.06;100943.28;5019586;28;20486;-81
2022/11/10 01:59:40;;;;;;;6.00;2.55;;;;;;;12.29;92.09;100941.91;5015794;28;20454;-81
2022/11/10 02:02:41;;;;;;;6.72;2.53;;;;;;;12.28;92.01;100955.75;5030506;28;20408;-80
2022/11/10 02:05:06;;;;;;;7.10;2.50;;;;;;;12.22;92.11;100960.25;5009486;28;20975;-80
2022/11/10 02:07:33;;;;;;;9.47;2.60;;;;;;;12.19;91.93;100957.19;4992894;28;20510;-81
2022/11/10 02:10:01;;;;;;;4.65;2.58;;;;;;;12.17;92.11;100956.63;5000541;28;20430;-81
2022/11/10 02:12:37;;;;;;;7.07;2.28;;;;;;;12.16;91.69;100957.69;4994867;28;20452;-81
2022/11/10 02:15:07;;;;;;;7.32;2.50;;;;;;;12.15;91.92;100961.47;4997740;28;20975;-80
2022/11/10 02:17:33;;;;;;;4.90;2.20;;;;;;;12.15;92.03;100964.19;5028507;28;20422;-80
2022/11/10 02:20:03;;;;;;;5.32;2.10;;;;;;;12.15;91.79;100975.06;5003598;28;20541;-80
2022/11/10 02:22:30;;;;;;;6.28;2.10;;;;;;;12.13;91.64;100974.47;5002101;28;20411;-81
2022/11/10 02:24:55;;;;;;;5.10;2.33;;;;;;;12.11;91.49;100982.03;5016957;28;20399;-81
2022/11/10 02:27:21;;;;;;;5.82;2.35;;;;;;;12.05;91.70;100980.31;5015406;28;20759;-80
2022/11/10 02:29:46;;;;;;;4.47;2.13;;;;;;;12.04;91.78;100984.06;5015892;28;20404;-81
2022/11/10 02:32:11;;;;;;;6.45;2.30;;;;;;;12.04;91.52;100979.47;5010937;28;20439;-81
2022/11/10 02:34:37;;;;;;;5.83;2.20;;;;;;;12.00;91.43;100978.31;5010587;28;20430;-81
2022/11/10 02:37:02;;;;;;;5.75;2.05;;;;;;;11.98;91.57;100991.31;4991887;28;20402;-81
2022/11/10 02:39:27;;;;;;;5.03;2.00;;;;;;;11.98;91.46;100991.31;4993016;28;20407;-80
2022/11/10 02:41:53;;;;;;;9.67;4.60;;;;;;;11.99;91.53;100994.84;4994001;28;20421;-81
2022/11/10 02:44:18;;;;;;;10.43;3.30;;;;;;;11.97;91.46;100989.66;5000550;28;20457;-81
2022/11/10 02:46:44;;;;;;;10.63;2.83;;;;;;;11.92;91.27;100984.13;5015046;28;20445;-81
2022/11/10 02:49:09;;;;;;;12.30;2.50;;;;;;;11.90;91.68;100983.53;5010585;28;20422;-80
2022/11/10 02:51:34;;;;;;;7.90;2.53;;;;;;;11.89;91.55;100987.28;5013437;28;20501;-81
2022/11/10 02:53:59;;;;;;;6.20;2.10;;;;;;;11.85;91.34;100989.69;5044429;28;20405;-81
2022/11/10 02:56:25;;;;;;;5.40;2.13;;;;;;;11.82;91.59;100992.06;5014448;28;20434;-81
2022/11/10 02:58:50;;;;;;;5.87;2.30;;;;;;;11.82;91.69;100992.06;5003215;28;20407;-80
2022/11/10 03:01:15;;;;;;;7.63;2.30;;;;;;;11.82;91.86;100994.78;5027683;28;20806;-81
2022/11/10 03:03:40;;;;;;;12.33;2.90;;;;;;;11.78;91.62;101012.63;5019180;28;20404;-80
2022/11/10 03:06:06;;;;;;;8.03;2.23;;;;;;;11.78;91.64;101013.44;5022277;28;20438;-81
2022/11/10 03:08:31;;;;;;;7.07;1.93;;;;;;;11.76;91.92;101017.44;5018243;28;21055;-81
2022/11/10 03:10:57;;;;;;;8.73;2.23;;;;;;;11.74;91.47;101020.41;5021977;28;20408;-80
2022/11/10 03:13:23;;;;;;;4.77;1.90;;;;;;;11.71;91.95;101026.31;5018672;28;20871;-80
2022/11/10 03:15:49;;;;;;;5.10;2.13;;;;;;;11.71;91.94;101022.78;5010684;28;20418;-79
2022/11/10 03:18:14;;;;;;;8.95;2.75;;;;;;;11.72;91.86;101027.16;4995915;28;20951;-80
2022/11/10 03:20:40;;;;;;;4.57;2.20;;;;;;;11.71;91.46;101026.31;4996613;28;20409;-81
2022/11/10 03:23:06;;;;;;;8.10;2.40;;;;;;;11.65;91.57;101029.13;5007543;28;20411;-81
2022/11/10 03:25:32;;;;;;;7.30;2.50;;;;;;;11.65;91.79;101031.84;5005620;28;20399;-81
2022/11/10 03:27:57;;;;;;;9.38;2.65;;;;;;;11.61;91.79;101036.91;4999002;28;20809;-81
2022/11/10 03:30:23;;;;;;;5.67;2.50;;;;;;;11.64;91.58;101044.59;5001870;28;20403;-81
2022/11/10 03:32:48;;;;;;;8.57;2.47;;;;;;;11.65;91.38;101045.41;5017621;28;20414;-81
2022/11/10 03:35:13;;;;;;;5.80;2.17;;;;;;;11.64;91.13;101049.19;5005291;28;20418;-81
2022/11/10 03:37:41;;;;;;;4.17;2.70;;;;;;;11.63;91.30;101047.53;5012226;28;20484;-81
2022/11/10 03:40:08;;;;;;;5.60;2.73;;;;;;;11.60;91.04;101042.56;5018292;28;20409;-81
2022/11/10 03:42:33;;;;;;;6.70;2.78;;;;;;;11.56;91.00;101044.13;5008352;28;20518;-80
2022/11/10 03:44:58;;;;;;;6.77;2.57;;;;;;;11.55;91.03;101050.63;5016667;28;20496;-81
2022/11/10 03:47:23;;;;;;;8.67;2.63;;;;;;;11.49;90.83;101040.72;4996376;28;20450;-81
2022/11/10 03:49:49;;;;;;;7.00;2.93;;;;;;;11.46;90.93;101050.97;4998403;28;20406;-81
2022/11/10 03:52:15;;;;;;;3.50;2.90;;;;;;;11.45;90.87;101053.91;4998323;28;20411;-80
2022/11/10 03:54:40;;;;;;;3.72;2.80;;;;;;;11.43;90.86;101062.28;5000318;28;20403;-81
2022/11/10 03:57:05;;;;;;;8.10;3.30;;;;;;;11.46;90.45;101071.84;5006916;28;20395;-81
2022/11/10 03:59:31;;;;;;;8.43;2.90;;;;;;;11.44;90.51;101066.66;5005488;28;20409;-81
2022/11/10 04:01:56;;;;;;;7.93;3.60;;;;;;;11.43;90.35;101073.13;5011369;28;20414;-81
2022/11/10 04:09:49;;;;;;;3.80;3.28;;;;;;;11.48;90.29;101080.59;5017807;28;20404;-81
2022/11/10 04:17:48;;;;;;;5.43;3.05;;;;;;;11.53;89.96;101099.69;5007902;28;20441;-81
2022/11/10 04:20:13;;;;;;;6.75;2.97;;;;;;;11.55;90.14;101102.19;5008714;28;20415;-80
2022/11/10 04:25:23;;;;;;;7.43;3.60;;;;;;;11.56;89.84;101099.22;4998810;28;20433;-81
2022/11/10 04:27:48;;;;;;;8.30;3.70;;;;;;;11.56;89.79;101110.06;4999446;28;20477;-81
2022/11/10 04:30:14;;;;;;;7.33;3.33;;;;;;;11.57;89.81;101116.34;5003878;28;20415;-81
2022/11/10 04:32:39;;;;;;;8.02;3.30;;;;;;;11.52;89.42;101113.53;5008729;28;20399;-81
2022/11/10 04:35:04;;;;;;;3.87;3.17;;;;;;;11.50;89.57;101115.63;5017358;28;20499;-81
2022/11/10 04:37:30;;;;;;;4.53;3.40;;;;;;;11.50;89.49;101129.19;5017156;28;20557;-81
2022/11/10 04:39:55;;;;;;;3.90;2.50;;;;;;;11.47;89.58;101130.50;5017018;28;20412;-80
2022/11/10 04:42:21;;;;;;;6.80;2.90;;;;;;;11.44;89.51;101136.41;5008412;28;20978;-81
2022/11/10 04:44:46;;;;;;;8.35;3.17;;;;;;;11.40;89.36;101136.03;5007406;28;20454;-81
2022/11/10 04:47:11;;;;;;;5.97;3.07;;;;;;;11.38;89.64;101140.88;5007979;28;20930;-81
2022/11/10 04:49:37;;;;;;;6.40;2.83;;;;;;;11.37;89.40;101135.69;4996423;28;20433;-81
2022/11/10 04:52:02;;;;;;;5.28;2.90;;;;;;;11.37;89.45;101150.06;4997892;28;20490;-81
2022/11/10 04:54:28;;;;;;;6.27;3.10;;;;;;;11.36;89.55;101151.13;4998988;28;20413;-81
2022/11/10 04:56:53;;;;;;;3.77;2.87;;;;;;;11.35;89.64;101157.63;5012859;28;20421;-81
2022/11/10 04:59:18;;;;;;;8.80;3.33;;;;;;;11.31;89.49;101153.72;4997458;28;20887;-80
2022/11/10 05:01:44;;;;;;;5.63;3.57;;;;;;;11.31;89.71;101161.03;4999559;28;20458;-80
2022/11/10 05:04:09;;;;;;;6.53;3.43;;;;;;;11.28;89.58;101161.50;5016875;28;20405;-81
2022/11/10 05:06:34;;;;;;;5.63;3.07;;;;;;;11.25;89.68;101159.25;5011153;28;20496;-81
2022/11/10 05:08:59;;;;;;;6.73;3.47;;;;;;;11.24;89.60;101168.44;5004215;28;20442;-81
2022/11/10 05:11:25;;;;;;;5.72;3.28;;;;;;;11.21;89.51;101166.19;5002987;28;20491;-81
2022/11/10 05:13:50;;;;;;;8.67;3.90;;;;;;;11.21;89.40;101168.91;5017595;28;20402;-81
2022/11/10 05:16:15;;;;;;;6.72;3.88;;;;;;;11.19;89.11;101169.16;4999281;28;20903;-80
2022/11/10 05:18:41;;;;;;;10.03;4.17;;;;;;;11.16;89.16;101169.63;5012316;28;20419;-81
2022/11/10 05:21:06;;;;;;;7.57;3.63;;;;;;;11.12;89.36;101168.41;5020570;28;20487;-81
2022/11/10 05:23:38;;;;;;;12.40;4.47;;;;;;;11.12;89.14;101168.41;5011266;28;20407;-80
2022/11/10 05:26:08;;;;;;;9.30;4.47;;;;;;;11.15;88.94;101170.66;5014760;28;20407;-81
2022/11/10 05:28:34;;;;;;;8.55;4.07;;;;;;;11.14;89.00;101165.47;5019040;28;20420;-82
2022/11/10 05:30:59;;;;;;;8.10;3.80;;;;;;;11.12;89.07;101159.44;5020257;28;20419;-82
2022/11/10 05:33:25;;;;;;;5.93;3.97;;;;;;;11.11;89.19;101164.03;5023841;28;20407;-82
2022/11/10 05:35:50;;;;;;;9.10;4.05;;;;;;;11.12;89.24;101173.84;5023973;28;20430;-80
2022/11/10 05:38:16;;;;;;;10.60;4.97;;;;;;;11.11;89.28;101176.78;5025654;28;20779;-81
2022/11/10 05:40:42;;;;;;;8.93;4.10;;;;;;;11.08;89.21;101169.94;5027608;28;20865;-80
2022/11/10 05:43:07;;;;;;;7.77;4.53;;;;;;;11.07;89.09;101181.84;5024986;28;20411;-80
2022/11/10 05:45:32;;;;;;;10.40;5.80;;;;;;;11.05;89.07;101186.66;5019339;28;20411;-78
2022/11/10 05:47:58;;;;;;;14.13;5.20;;;;;;;11.05;88.95;101192.09;5025657;28;20425;-80
2022/11/10 05:50:24;;;;;;;12.77;5.87;;;;;;;11.01;88.94;101196.31;5025441;28;20415;-80
2022/11/10 05:52:52;;;;;;;14.60;4.70;;;;;;;10.99;89.06;101201.16;5022842;28;20513;-80
2022/11/10 05:55:22;;;;;;;11.00;5.00;;;;;;;10.97;89.40;101197.00;5023806;28;20403;-80
2022/11/10 05:57:49;;;;;;;10.85;4.38;;;;;;;10.98;89.21;101209.50;5025853;28;20399;-79
2022/11/10 06:00:27;;;;;;;14.20;4.82;;;;;;;10.99;89.27;101208.47;5026022;28;20395;-78
2022/11/10 06:03:21;;;;;;;11.10;4.60;;;;;;;10.93;89.01;101204.78;5026180;28;20448;-78
2022/11/10 06:05:48;;;;;;;8.82;4.18;;;;;;;10.96;89.15;101225.19;5009622;28;20416;-79
2022/11/10 06:08:25;;;;;;;9.82;3.55;;;;;;;10.90;89.22;101211.47;5008507;28;20425;-80
2022/11/10 06:10:58;;;;;;;10.43;4.23;;;;;;;10.87;88.95;101222.78;5008741;28;20407;-79
2022/11/10 06:13:44;;;;;;;6.70;3.90;;;;;;;10.80;89.37;101234.78;4998236;28;20392;-80
2022/11/10 06:16:09;;;;;;;9.07;4.50;;;;;;;10.86;89.28;101240.13;5010959;28;20559;-83
2022/11/10 06:18:35;;;;;;;8.90;4.30;;;;;;;10.90;89.13;101259.47;5004703;28;20478;-80
2022/11/10 06:21:09;;;;;;;7.80;4.27;;;;;;;10.91;89.05;101263.84;5007012;28;20811;-79
2022/11/10 06:23:34;;;;;;;7.78;4.13;;;;;;;10.92;89.15;101274.47;5000534;28;20657;-78
2022/11/10 06:25:59;;;;;;;9.30;4.10;;;;;;;10.92;89.19;101287.19;5011633;28;20944;-80
2022/11/10 06:28:24;;;;;;;8.93;4.20;;;;;;;10.90;89.21;101284.69;5006049;28;20433;-79
2022/11/10 06:30:50;;;;;;;10.53;5.20;;;;;;;10.94;88.98;101293.22;5003529;28;20410;-78
2022/11/10 06:33:15;;;;;;;10.43;5.63;;;;;;;10.93;88.67;101292.38;5003361;28;20406;-79
2022/11/10 06:35:40;;;;;;;11.47;5.93;;;;;;;10.94;88.73;101296.75;5004691;28;20480;-78
2022/11/10 06:38:09;;;;;;;10.23;5.63;;;;;;;10.95;88.73;101300.28;5003279;28;20439;-79
2022/11/10 06:40:34;;;;;;;10.98;4.35;;;;;;;10.98;88.78;101304.44;5000999;28;20408;-79
2022/11/10 06:43:00;;;;;;;6.70;4.13;;;;;;;11.01;88.64;101310.22;5008893;28;20520;-79
2022/11/10 06:45:27;;;;;;;7.32;3.85;;;;;;;11.02;88.44;101320.03;5016486;28;20425;-79
2022/11/10 06:48:19;;;;;;;10.10;4.53;;;;;;;11.03;88.57;101318.16;5020299;28;20428;-79
2022/11/10 06:50:44;;;;;;;9.95;4.28;;;;;;;11.06;88.41;101321.25;5006114;28;20759;-80
2022/11/10 06:53:12;;;;;;;11.32;4.80;;;;;;;11.05;88.35;101330.44;5045189;28;21370;-79
2022/11/10 06:55:38;;;;;;;12.67;4.37;;;;;;;11.05;88.26;101332.31;5013591;28;20408;-79
2022/11/10 06:58:03;;;;;;;6.80;3.90;;;;;;;11.07;88.24;101339.16;5022532;28;20391;-79
2022/11/10 07:00:28;;;;;;;8.67;4.03;;;;;;;11.02;88.33;101355.31;5019791;28;20425;-79
2022/11/10 07:03:14;;;;;;;9.67;4.77;;;;;;;11.01;88.31;101350.91;5008187;28;20485;-79
2022/11/10 07:05:39;;;;;;;8.05;5.45;;;;;;;10.99;88.47;101352.22;5032080;28;20393;-79
2022/11/10 07:08:07;;;;;;;10.77;5.50;;;;;;;11.01;88.38;101352.81;5018655;28;20415;-79
2022/11/10 07:10:33;;;;;;;9.65;5.85;;;;;;;11.01;88.42;101359.06;5014113;28;20906;-79
2022/11/10 07:13:00;;;;;;;11.50;6.50;;;;;;;11.01;88.41;101366.34;4998357;28;20438;-79
2022/11/10 07:15:25;;;;;;;14.38;6.80;;;;;;;11.00;88.36;101368.25;5017890;28;20427;-79
2022/11/10 07:17:51;;;;;;;15.15;6.43;;;;;;;11.00;88.19;101375.56;5022406;28;20399;-79
2022/11/10 07:20:16;;;;;;;10.17;5.27;;;;;;;10.98;88.38;101386.63;5018862;28;20385;-79
2022/11/10 07:22:42;;;;;;;13.90;5.40;;;;;;;10.98;88.38;101392.06;5018498;28;20400;-79
2022/11/10 07:25:07;;;;;;;13.23;5.97;;;;;;;10.98;88.36;101388.50;5019075;28;20385;-79
2022/11/10 07:27:33;;;;;;;9.47;7.23;;;;;;;11.00;88.20;101383.72;5021513;28;20896;-79
2022/11/10 07:29:58;;;;;;;13.30;7.78;;;;;;;11.00;88.33;101392.66;5016060;28;20413;-78
2022/11/10 07:32:23;;;;;;;12.23;6.63;;;;;;;10.99;88.01;101396.44;5014298;28;20405;-79
2022/11/10 07:34:49;;;;;;;13.23;6.05;;;;;;;10.99;88.29;101399.16;5018698;28;20407;-79
2022/11/10 07:37:14;;;;;;;7.30;4.90;;;;;;;11.00;88.10;101397.28;5021041;28;20399;-79
2022/11/10 07:39:39;;;;;;;7.80;4.87;;;;;;;11.02;88.07;101400.56;5052763;28;20391;-80
2022/11/10 07:42:04;;;;;;;27.57;12.80;;;;;;;11.05;87.92;101402.84;5009126;28;20423;-80
2022/11/10 07:44:30;;;;;;;12.10;6.50;;;;;;;11.09;87.80;101404.06;5008102;28;20414;-81
2022/11/10 07:46:55;;;;;;;12.00;5.03;;;;;;;11.10;87.56;101405.72;5017529;28;20408;-80
2022/11/10 07:49:20;;;;;;;11.07;5.50;;;;;;;11.11;87.64;101419.03;5028911;28;20394;-80
2022/11/10 07:51:46;;;;;;;11.07;4.93;;;;;;;11.10;87.93;101417.38;5018367;28;20420;-80
2022/11/10 07:54:11;;;;;;;10.45;5.30;;;;;;;11.10;88.11;101417.38;5018300;28;20487;-80
2022/11/10 07:56:36;;;;;;;8.60;4.90;;;;;;;11.12;87.90;101428.84;5005031;28;20888;-79
2022/11/10 07:59:02;;;;;;;8.93;4.40;;;;;;;11.12;87.94;101434.28;5008362;28;20503;-79
2022/11/10 08:01:27;;;;;;;6.83;4.50;;;;;;;11.13;88.19;101435.91;5008726;28;20409;-79
2022/11/10 08:03:52;;;;;;;10.80;5.60;;;;;;;11.16;88.04;101446.34;5016060;28;20463;-79
2022/11/10 08:06:18;;;;;;;14.43;5.00;;;;;;;11.19;88.08;101447.78;5009240;28;20409;-80
2022/11/10 08:08:45;;;;;;;10.27;6.55;;;;;;;11.22;88.20;101436.47;5002471;28;20419;-80
2022/11/10 08:11:11;;;;;;;15.15;7.30;;;;;;;11.31;88.02;101441.38;5011544;28;20414;-79
2022/11/10 08:13:36;;;;;;;11.77;7.53;;;;;;;11.46;87.82;101443.69;5015923;28;20491;-80
2022/11/10 08:16:02;;;;;;;12.13;6.43;;;;;;;11.57;87.46;101442.09;5013615;28;20414;-80
2022/11/10 08:18:27;;;;;;;11.63;6.40;;;;;;;11.71;87.11;101447.19;5018265;28;20439;-80
2022/11/10 08:20:52;;;;;;;7.93;6.27;;;;;;;11.71;87.18;101462.63;5001144;28;20493;-80
2022/11/10 08:23:18;;;;;;;17.87;7.27;;;;;;;11.71;87.50;101462.63;5018034;28;20451;-80
2022/11/10 08:25:43;;;;;;;9.97;5.63;;;;;;;11.77;87.77;101461.72;5012161;28;20420;-80
2022/11/10 08:28:12;;;;;;;13.77;7.33;;;;;;;11.85;87.24;101470.41;5004212;28;20426;-80
2022/11/10 08:30:38;;;;;;;15.18;7.72;;;;;;;11.85;87.67;101484.00;5012675;28;20408;-79
2022/11/10 08:33:05;;;;;;;11.77;6.17;;;;;;;11.76;88.10;101471.75;5006834;28;20817;-80
2022/11/10 08:35:36;;;;;;;10.85;6.20;;;;;;;11.89;88.29;101476.19;5007296;28;20470;-79
2022/11/10 08:38:13;;;;;;;12.52;6.20;;;;;;;12.24;86.69;101484.50;5016566;28;20797;-80
2022/11/10 08:40:39;;;;;;;15.52;5.90;;;;;;;12.08;87.00;101480.56;4999682;28;20490;-80
2022/11/10 08:43:08;;;;;;;12.00;5.82;;;;;;;11.92;87.74;101478.47;5015885;28;20914;-80
2022/11/10 08:45:38;;;;;;;10.38;5.82;;;;;;;11.86;88.46;101490.22;5016120;28;20413;-80
2022/11/10 08:48:12;;;;;;;13.13;6.53;;;;;;;11.89;88.88;101490.59;5020036;28;20419;-79
2022/11/10 08:50:38;;;;;;;13.85;6.25;;;;;;;12.01;88.94;101492.56;5014590;28;20467;-80
2022/11/10 08:53:05;;;;;;;11.07;5.80;;;;;;;12.17;88.96;101506.34;5009241;28;20381;-80
2022/11/10 08:55:31;;;;;;;10.73;6.28;;;;;;;12.37;88.23;101503.34;5011447;28;20891;-80
2022/11/10 08:58:01;;;;;;;12.32;6.60;;;;;;;12.58;87.84;101504.72;5004586;28;20418;-79
2022/11/10 09:00:27;;;;;;;10.05;6.10;;;;;;;12.72;87.62;101509.69;5016084;28;20424;-80
2022/11/10 09:02:54;;;;;;;12.77;6.50;;;;;;;12.88;87.43;101513.63;5017023;28;20392;-80
2022/11/10 09:05:19;;;;;;;13.60;6.40;;;;;;;12.97;86.95;101518.47;5012411;28;20759;-79
2022/11/10 09:07:46;;;;;;;11.20;5.67;;;;;;;12.99;87.20;101519.09;5005615;28;20419;-79
2022/11/10 09:10:12;;;;;;;10.50;5.57;;;;;;;13.08;86.81;101516.84;5002777;28;20414;-79
2022/11/10 09:12:38;;;;;;;11.23;5.70;;;;;;;13.14;86.90;101512.41;5014515;28;20807;-79
2022/11/10 09:15:04;;;;;;;7.83;4.90;;;;;;;13.10;86.93;101514.75;4997202;28;20418;-80
2022/11/10 09:17:30;;;;;;;8.87;4.90;;;;;;;13.01;87.55;101518.84;5010586;28;20419;-80
2022/11/10 09:19:55;;;;;;;9.95;4.80;;;;;;;13.00;87.59;101519.91;5012089;28;20415;-80
2022/11/10 09:22:21;;;;;;;5.70;4.80;;;;;;;13.13;87.21;101511.56;4997587;28;20410;-80
2022/11/10 09:24:46;;;;;;;11.27;4.90;;;;;;;13.19;86.53;101507.88;5007200;28;20832;-80
2022/11/10 09:27:11;;;;;;;10.57;4.97;;;;;;;13.03;87.32;101514.00;5030728;28;21098;-80
2022/11/10 09:29:37;;;;;;;7.78;4.53;;;;;;;12.98;87.62;101532.91;5015283;28;20422;-80
2022/11/10 09:32:02;;;;;;;6.50;4.00;;;;;;;12.99;87.91;101532.69;5016098;28;20504;-79
2022/11/10 09:34:27;;;;;;;11.37;4.60;;;;;;;13.06;87.97;101534.47;5016257;28;20420;-80
2022/11/10 09:36:52;;;;;;;7.30;3.80;;;;;;;13.49;87.11;101535.00;5014737;28;20415;-81
2022/11/10 09:39:18;;;;;;;6.40;3.57;;;;;;;14.25;84.80;101531.16;5008974;28;20950;-81
2022/11/10 09:41:43;;;;;;;4.67;2.90;;;;;;;15.25;80.74;101540.28;5015422;28;20421;-81
2022/11/10 09:44:26;;;;;;;6.22;3.50;;;;;;;15.39;78.46;101532.59;5014957;28;20416;-80
2022/11/10 09:47:15;;;;;;;5.60;3.20;;;;;;;15.77;78.38;101546.31;5017160;28;20409;-80
2022/11/10 09:49:48;;;;;;;5.40;3.17;;;;;;;16.92;74.61;101554.19;5005334;28;20496;-81
2022/11/10 09:52:16;;;;;;;7.93;2.63;;;;;;;17.89;70.31;101559.28;5014970;28;20941;-81
2022/11/10 09:54:47;;;;;;;7.40;2.63;;;;;;;17.99;68.52;101563.97;5015414;28;20423;-80
2022/11/10 09:57:17;;;;;;;5.65;2.28;;;;;;;16.91;71.38;101563.50;5011298;28;20745;-81
2022/11/10 09:59:43;;;;;;;3.77;2.03;;;;;;;16.20;73.66;101569.25;5020607;28;20455;-80
2022/11/10 10:02:30;;;;;;;2.53;1.87;;;;;;;15.92;75.14;101573.00;5016689;28;20396;-81
2022/11/10 10:05:17;;;;;;;6.97;2.13;;;;;;;15.87;75.31;101571.00;5019886;28;20397;-81
2022/11/10 10:07:58;;;;;;;5.18;1.73;;;;;;;15.99;74.72;101570.91;5011453;28;20768;-80
2022/11/10 10:10:43;;;;;;;6.03;2.03;;;;;;;16.71;72.40;101563.28;5021092;28;20761;-81
2022/11/10 10:13:25;;;;;;;3.05;1.60;;;;;;;17.12;69.41;101572.72;5015272;28;20389;-79
2022/11/10 10:16:05;;;;;;;4.13;1.48;;;;;;;16.17;72.06;101567.03;5012295;28;20412;-80
2022/11/10 10:19:01;;;;;;;4.55;1.63;;;;;;;15.49;74.37;101574.59;5022934;28;20398;-80
2022/11/10 10:21:40;;;;;;;5.45;1.88;;;;;;;15.07;75.89;101574.16;5013930;28;20416;-80
2022/11/10 10:24:11;;;;;;;2.08;1.67;;;;;;;14.82;77.08;101572.91;5020267;28;20397;-81
2022/11/10 10:26:48;;;;;;;3.53;1.60;;;;;;;14.68;77.62;101561.47;5022733;28;20406;-81
2022/11/10 10:29:42;;;;;;;4.53;1.60;;;;;;;14.56;78.13;101560.66;5002779;28;20420;-81
2022/11/10 10:32:15;;;;;;;2.67;1.40;;;;;;;14.49;78.13;101566.28;5018663;28;20495;-81
2022/11/10 10:34:43;;;;;;;3.88;1.75;;;;;;;14.43;78.23;101560.97;5021355;28;20407;-80
2022/11/10 10:37:23;;;;;;;6.82;2.42;;;;;;;14.36;78.58;101557.56;5018907;28;20861;-80
2022/11/10 10:39:52;;;;;;;3.85;1.73;;;;;;;14.31;78.53;101558.25;5012184;28;20628;-80
2022/11/10 10:42:37;;;;;;;3.88;1.73;;;;;;;14.25;79.27;101564.69;5019153;28;20585;-81
2022/11/10 10:45:12;;;;;;;5.28;1.92;;;;;;;14.18;79.61;101558.56;5020779;28;20751;-81
2022/11/10 10:47:38;;;;;;;3.53;1.63;;;;;;;14.16;79.68;101560.66;5015805;28;20426;-81
2022/11/10 10:50:21;;;;;;;5.07;1.50;;;;;;;14.15;79.83;101563.66;5007510;28;20499;-80
2022/11/10 10:53:07;;;;;;;5.87;1.60;;;;;;;14.13;79.56;101563.06;5012589;28;20412;-80
2022/11/10 10:55:36;;;;;;;4.78;1.67;;;;;;;14.10;79.71;101558.91;5013154;28;20425;-81
2022/11/10 10:58:24;;;;;;;4.80;1.90;;;;;;;14.09;79.91;101570.06;5018965;28;20492;-81
2022/11/10 11:01:27;;;;;;;2.97;1.70;;;;;;;13.98;80.01;101561.69;5012343;28;20878;-80
2022/11/10 11:03:52;;;;;;;4.97;1.70;;;;;;;13.95;80.42;101564.91;5017073;28;20422;-80
2022/11/10 11:06:27;;;;;;;4.60;1.50;;;;;;;13.96;80.30;101569.25;5011190;28;20424;-80
2022/11/10 11:09:15;;;;;;;5.60;2.25;;;;;;;13.92;80.26;101570.81;5018638;28;20421;-80
2022/11/10 11:11:43;;;;;;;7.45;2.05;;;;;;;13.88;80.53;101564.19;5000571;28;20787;-80
2022/11/10 11:14:27;;;;;;;7.78;1.70;;;;;;;13.89;80.52;101563.13;5021637;28;20412;-80
2022/11/10 11:16:55;;;;;;;5.77;1.60;;;;;;;13.88;80.56;101558.75;5009371;28;20485;-79
2022/11/10 11:19:27;;;;;;;4.73;1.60;;;;;;;13.89;80.66;101560.41;5008958;28;20768;-80
2022/11/10 11:22:36;;;;;;;4.30;1.50;;;;;;;13.90;80.60;101556.59;5010886;28;20403;-80
2022/11/10 11:25:26;;;;;;;4.43;1.50;;;;;;;13.90;80.87;101570.22;5015188;28;20531;-80
2022/11/10 11:28:09;;;;;;;1.88;1.10;;;;;;;13.90;80.64;101559.31;5010183;28;20427;-80
2022/11/10 11:30:37;;;;;;;6.13;1.80;;;;;;;13.94;80.30;101565.13;5013854;28;20461;-80
2022/11/10 11:33:14;;;;;;;6.03;1.90;;;;;;;13.92;80.19;101564.53;5016579;28;20419;-79
2022/11/10 11:35:55;;;;;;;6.85;1.55;;;;;;;13.86;80.49;101555.41;5019696;28;20450;-79
2022/11/10 11:38:33;;;;;;;3.63;1.73;;;;;;;13.86;80.29;101557.34;5017491;28;20413;-79
2022/11/10 11:41:33;;;;;;;3.80;1.30;;;;;;;13.80;80.11;101564.53;5011859;28;20887;-79
2022/11/10 11:44:15;;;;;;;3.28;1.60;;;;;;;13.84;79.75;101567.63;4993270;28;20443;-81
2022/11/10 11:47:17;;;;;;;2.75;1.42;;;;;;;13.83;79.69;101563.25;5027786;28;20403;-81
2022/11/10 11:49:48;;;;;;;4.72;1.42;;;;;;;13.83;79.74;101561.34;5007165;28;20480;-78